sensor_id;sensor_type;location;lat;lon;timestamp;temperature;humidity
52267;DHT22;38223;50.940;4.034;2023-04-24T00:00:28;11.00;99.90
52267;DHT22;38223;50.940;4.034;2023-04-24T00:03:01;11.10;99.90
52267;DHT22;38223;50.940;4.034;2023-04-24T00:05:30;11.20;99.90
52267;DHT22;38223;50.940;4.034;2023-04-24T00:08:04;11.30;99.90
52267;DHT22;38223;50.940;4.034;2023-04-24T00:10:36;11.30;99.90
52267;DHT22;38223;50.940;4.034;2023-04-24T00:13:09;11.30;99.90
52267;DHT22;38223;50.940;4.034;2023-04-24T00:15:37;11.30;99.90
52267;DHT22;38223;50.940;4.034;2023-04-24T00:18:09;11.30;99.90
52267;DHT22;38223;50.940;4.034;2023-04-24T00:20:43;11.30;99.90
52267;DHT22;38223;50.940;4.034;2023-04-24T00:23:10;11.20;99.90
52267;DHT22;38223;50.940;4.034;2023-04-24T00:25:42;11.10;99.90
52267;DHT22;38223;50.940;4.034;2023-04-24T00:28:12;11.10;99.90
52267;DHT22;38223;50.940;4.034;2023-04-24T00:30:42;11.10;99.90
52267;DHT22;38223;50.940;4.034;2023-04-24T00:33:13;11.20;99.90
52267;DHT22;38223;50.940;4.034;2023-04-24T00:35:46;11.20;99.90
52267;DHT22;38223;50.940;4.034;2023-04-24T00:38:19;11.20;99.90
52267;DHT22;38223;50.940;4.034;2023-04-24T00:40:52;11.10;99.90
52267;DHT22;38223;50.940;4.034;2023-04-24T00:43:27;11.10;99.90
52267;DHT22;38223;50.940;4.034;2023-04-24T00:46:00;11.10;99.90
52267;DHT22;38223;50.940;4.034;2023-04-24T00:48:32;11.10;99.90
52267;DHT22;38223;50.940;4.034;2023-04-24T00:51:07;11.10;99.90
52267;DHT22;38223;50.940;4.034;2023-04-24T00:53:38;11.00;99.90
52267;DHT22;38223;50.940;4.034;2023-04-24T00:56:08;11.00;99.90
52267;DHT22;38223;50.940;4.034;2023-04-24T00:58:40;10.90;99.90
52267;DHT22;38223;50.940;4.034;2023-04-24T01:01:16;11.00;99.90
52267;DHT22;38223;50.940;4.034;2023-04-24T01:03:44;11.00;99.90
52267;DHT22;38223;50.940;4.034;2023-04-24T01:06:17;10.90;99.90
52267;DHT22;38223;50.940;4.034;2023-04-24T01:08:49;10.90;99.90
52267;DHT22;38223;50.940;4.034;2023-04-24T01:11:23;10.80;99.90
52267;DHT22;38223;50.940;4.034;2023-04-24T01:13:53;10.80;99.90
52267;DHT22;38223;50.940;4.034;2023-04-24T01:16:25;10.70;99.90
52267;DHT22;38223;50.940;4.034;2023-04-24T01:19:02;10.80;99.90
52267;DHT22;38223;50.940;4.034;2023-04-24T01:21:34;10.80;99.90
52267;DHT22;38223;50.940;4.034;2023-04-24T01:24:09;10.60;99.90
52267;DHT22;38223;50.940;4.034;2023-04-24T01:26:39;10.70;99.90
52267;DHT22;38223;50.940;4.034;2023-04-24T01:29:11;10.60;99.90
52267;DHT22;38223;50.940;4.034;2023-04-24T01:31:48;10.60;99.90
52267;DHT22;38223;50.940;4.034;2023-04-24T01:34:20;10.60;99.90
52267;DHT22;38223;50.940;4.034;2023-04-24T01:36:56;10.40;99.90
52267;DHT22;38223;50.940;4.034;2023-04-24T01:39:26;10.20;99.90
52267;DHT22;38223;50.940;4.034;2023-04-24T01:41:57;10.10;99.90
52267;DHT22;38223;50.940;4.034;2023-04-24T01:44:26;10.10;99.90
52267;DHT22;38223;50.940;4.034;2023-04-24T01:47:02;10.00;99.90
52267;DHT22;38223;50.940;4.034;2023-04-24T01:49:36;10.10;99.90
52267;DHT22;38223;50.940;4.034;2023-04-24T01:52:07;10.00;99.90
52267;DHT22;38223;50.940;4.034;2023-04-24T01:54:40;10.00;99.90
52267;DHT22;38223;50.940;4.034;2023-04-24T01:57:11;10.00;99.90
52267;DHT22;38223;50.940;4.034;2023-04-24T01:59:45;10.00;99.90
52267;DHT22;38223;50.940;4.034;2023-04-24T02:02:18;9.90;99.90
52267;DHT22;38223;50.940;4.034;2023-04-24T02:04:52;9.90;99.90
52267;DHT22;38223;50.940;4.034;2023-04-24T02:07:27;9.90;99.90
52267;DHT22;38223;50.940;4.034;2023-04-24T02:10:03;9.80;99.90
52267;DHT22;38223;50.940;4.034;2023-04-24T02:12:34;9.70;99.90
52267;DHT22;38223;50.940;4.034;2023-04-24T02:15:07;9.70;99.90
52267;DHT22;38223;50.940;4.034;2023-04-24T02:17:40;9.80;99.90
52267;DHT22;38223;50.940;4.034;2023-04-24T02:20:17;9.80;99.90
52267;DHT22;38223;50.940;4.034;2023-04-24T02:22:49;9.90;99.90
52267;DHT22;38223;50.940;4.034;2023-04-24T02:25:20;9.90;99.90
52267;DHT22;38223;50.940;4.034;2023-04-24T02:27:52;10.00;99.90
52267;DHT22;38223;50.940;4.034;2023-04-24T02:30:25;10.00;99.90
52267;DHT22;38223;50.940;4.034;2023-04-24T02:32:58;10.10;99.90
52267;DHT22;38223;50.940;4.034;2023-04-24T02:35:31;9.90;99.90
52267;DHT22;38223;50.940;4.034;2023-04-24T02:40:48;10.00;99.90
52267;DHT22;38223;50.940;4.034;2023-04-24T02:43:20;10.00;99.90
52267;DHT22;38223;50.940;4.034;2023-04-24T02:45:57;9.90;99.90
52267;DHT22;38223;50.940;4.034;2023-04-24T02:48:46;9.80;99.90
52267;DHT22;38223;50.940;4.034;2023-04-24T02:51:16;9.70;99.90
52267;DHT22;38223;50.940;4.034;2023-04-24T02:53:55;9.70;99.90
52267;DHT22;38223;50.940;4.034;2023-04-24T02:56:25;9.70;99.90
52267;DHT22;38223;50.940;4.034;2023-04-24T02:59:02;9.60;99.90
52267;DHT22;38223;50.940;4.034;2023-04-24T03:01:32;9.60;99.90
52267;DHT22;38223;50.940;4.034;2023-04-24T03:04:04;9.50;99.90
52267;DHT22;38223;50.940;4.034;2023-04-24T03:06:34;9.50;99.90
52267;DHT22;38223;50.940;4.034;2023-04-24T03:09:09;9.40;99.90
52267;DHT22;38223;50.940;4.034;2023-04-24T03:11:39;9.50;99.90
52267;DHT22;38223;50.940;4.034;2023-04-24T03:14:11;9.40;99.90
52267;DHT22;38223;50.940;4.034;2023-04-24T03:16:44;9.40;99.90
52267;DHT22;38223;50.940;4.034;2023-04-24T03:19:16;9.30;99.90
52267;DHT22;38223;50.940;4.034;2023-04-24T03:21:47;9.30;99.90
52267;DHT22;38223;50.940;4.034;2023-04-24T03:24:20;9.30;99.90
52267;DHT22;38223;50.940;4.034;2023-04-24T03:26:50;9.30;99.90
52267;DHT22;38223;50.940;4.034;2023-04-24T03:29:18;9.40;99.90
52267;DHT22;38223;50.940;4.034;2023-04-24T03:31:51;9.40;99.90
52267;DHT22;38223;50.940;4.034;2023-04-24T03:34:22;9.50;99.90
52267;DHT22;38223;50.940;4.034;2023-04-24T03:36:55;9.50;99.90
52267;DHT22;38223;50.940;4.034;2023-04-24T03:39:24;9.50;99.90
52267;DHT22;38223;50.940;4.034;2023-04-24T03:41:57;9.60;99.90
52267;DHT22;38223;50.940;4.034;2023-04-24T03:44:32;9.70;99.90
52267;DHT22;38223;50.940;4.034;2023-04-24T03:47:03;9.70;99.90
52267;DHT22;38223;50.940;4.034;2023-04-24T03:49:37;9.70;99.90
52267;DHT22;38223;50.940;4.034;2023-04-24T03:52:10;9.70;99.90
52267;DHT22;38223;50.940;4.034;2023-04-24T03:54:45;9.60;99.90
52267;DHT22;38223;50.940;4.034;2023-04-24T03:57:17;9.60;99.90
52267;DHT22;38223;50.940;4.034;2023-04-24T03:59:53;9.50;99.90
52267;DHT22;38223;50.940;4.034;2023-04-24T04:02:22;9.50;99.90
52267;DHT22;38223;50.940;4.034;2023-04-24T04:04:54;9.50;99.90
52267;DHT22;38223;50.940;4.034;2023-04-24T04:07:24;9.50;99.90
52267;DHT22;38223;50.940;4.034;2023-04-24T04:09:56;9.50;99.90
52267;DHT22;38223;50.940;4.034;2023-04-24T04:12:27;9.40;99.90
52267;DHT22;38223;50.940;4.034;2023-04-24T04:14:59;9.40;99.90
52267;DHT22;38223;50.940;4.034;2023-04-24T04:17:30;9.40;99.90
52267;DHT22;38223;50.940;4.034;2023-04-24T04:20:04;9.30;99.90
52267;DHT22;38223;50.940;4.034;2023-04-24T04:22:39;9.30;99.90
52267;DHT22;38223;50.940;4.034;2023-04-24T04:25:12;9.20;99.90
52267;DHT22;38223;50.940;4.034;2023-04-24T04:27:40;9.20;99.90
52267;DHT22;38223;50.940;4.034;2023-04-24T04:30:14;9.10;99.90
52267;DHT22;38223;50.940;4.034;2023-04-24T04:32:42;9.10;99.90
52267;DHT22;38223;50.940;4.034;2023-04-24T04:35:17;9.10;99.90
52267;DHT22;38223;50.940;4.034;2023-04-24T04:37:50;9.10;99.90
52267;DHT22;38223;50.940;4.034;2023-04-24T04:40:28;9.20;99.90
52267;DHT22;38223;50.940;4.034;2023-04-24T04:42:57;9.30;99.90
52267;DHT22;38223;50.940;4.034;2023-04-24T04:45:33;9.30;99.90
52267;DHT22;38223;50.940;4.034;2023-04-24T04:48:07;9.30;99.90
52267;DHT22;38223;50.940;4.034;2023-04-24T04:50:43;9.30;99.90
52267;DHT22;38223;50.940;4.034;2023-04-24T04:53:12;9.30;99.90
52267;DHT22;38223;50.940;4.034;2023-04-24T04:55:41;9.30;99.90
52267;DHT22;38223;50.940;4.034;2023-04-24T04:58:17;9.20;99.90
52267;DHT22;38223;50.940;4.034;2023-04-24T05:00:46;9.30;99.90
52267;DHT22;38223;50.940;4.034;2023-04-24T05:03:20;9.30;99.90
52267;DHT22;38223;50.940;4.034;2023-04-24T05:05:57;9.20;99.90
52267;DHT22;38223;50.940;4.034;2023-04-24T05:08:30;9.10;99.90
52267;DHT22;38223;50.940;4.034;2023-04-24T05:11:01;9.10;99.90
52267;DHT22;38223;50.940;4.034;2023-04-24T05:13:31;9.00;99.90
52267;DHT22;38223;50.940;4.034;2023-04-24T05:16:06;9.00;99.90
52267;DHT22;38223;50.940;4.034;2023-04-24T05:18:35;9.10;99.90
52267;DHT22;38223;50.940;4.034;2023-04-24T05:21:09;9.00;99.90
52267;DHT22;38223;50.940;4.034;2023-04-24T05:23:38;9.00;99.90
52267;DHT22;38223;50.940;4.034;2023-04-24T05:26:12;9.00;99.90
52267;DHT22;38223;50.940;4.034;2023-04-24T05:28:44;9.00;99.90
52267;DHT22;38223;50.940;4.034;2023-04-24T05:31:17;8.90;99.90
52267;DHT22;38223;50.940;4.034;2023-04-24T05:33:48;8.90;99.90
52267;DHT22;38223;50.940;4.034;2023-04-24T05:36:26;8.90;99.90
52267;DHT22;38223;50.940;4.034;2023-04-24T05:38:55;8.90;99.90
52267;DHT22;38223;50.940;4.034;2023-04-24T05:41:28;8.90;99.90
52267;DHT22;38223;50.940;4.034;2023-04-24T05:43:58;8.90;99.90
52267;DHT22;38223;50.940;4.034;2023-04-24T05:46:29;8.90;99.90
52267;DHT22;38223;50.940;4.034;2023-04-24T05:48:59;8.90;99.90
52267;DHT22;38223;50.940;4.034;2023-04-24T05:51:30;8.90;99.90
52267;DHT22;38223;50.940;4.034;2023-04-24T05:54:05;8.80;99.90
52267;DHT22;38223;50.940;4.034;2023-04-24T05:56:39;8.80;99.90
52267;DHT22;38223;50.940;4.034;2023-04-24T05:59:09;8.90;99.90
52267;DHT22;38223;50.940;4.034;2023-04-24T06:01:38;8.90;99.90
52267;DHT22;38223;50.940;4.034;2023-04-24T06:04:11;8.90;99.90
52267;DHT22;38223;50.940;4.034;2023-04-24T06:06:40;8.90;99.90
52267;DHT22;38223;50.940;4.034;2023-04-24T06:09:13;8.90;99.90
52267;DHT22;38223;50.940;4.034;2023-04-24T06:11:47;8.90;99.90
52267;DHT22;38223;50.940;4.034;2023-04-24T06:14:16;9.00;99.90
52267;DHT22;38223;50.940;4.034;2023-04-24T06:16:48;9.00;99.90
52267;DHT22;38223;50.940;4.034;2023-04-24T06:19:24;8.90;99.90
52267;DHT22;38223;50.940;4.034;2023-04-24T06:21:56;9.00;99.90
52267;DHT22;38223;50.940;4.034;2023-04-24T06:24:31;9.00;99.90
52267;DHT22;38223;50.940;4.034;2023-04-24T06:27:05;9.10;99.90
52267;DHT22;38223;50.940;4.034;2023-04-24T06:29:37;9.10;99.90
52267;DHT22;38223;50.940;4.034;2023-04-24T06:32:09;9.20;99.90
52267;DHT22;38223;50.940;4.034;2023-04-24T06:34:41;9.20;99.90
52267;DHT22;38223;50.940;4.034;2023-04-24T06:37:14;9.30;99.90
52267;DHT22;38223;50.940;4.034;2023-04-24T06:39:43;9.20;99.90
52267;DHT22;38223;50.940;4.034;2023-04-24T06:42:15;9.20;99.90
52267;DHT22;38223;50.940;4.034;2023-04-24T06:44:49;9.20;99.90
52267;DHT22;38223;50.940;4.034;2023-04-24T06:47:23;9.20;99.90
52267;DHT22;38223;50.940;4.034;2023-04-24T06:49:56;9.20;99.90
52267;DHT22;38223;50.940;4.034;2023-04-24T06:52:29;9.20;99.90
52267;DHT22;38223;50.940;4.034;2023-04-24T06:55:07;9.20;99.90
52267;DHT22;38223;50.940;4.034;2023-04-24T06:57:42;9.30;99.90
52267;DHT22;38223;50.940;4.034;2023-04-24T07:00:12;9.40;99.90
52267;DHT22;38223;50.940;4.034;2023-04-24T07:02:44;9.50;99.90
52267;DHT22;38223;50.940;4.034;2023-04-24T07:05:16;9.60;99.90
52267;DHT22;38223;50.940;4.034;2023-04-24T07:07:53;9.50;99.90
52267;DHT22;38223;50.940;4.034;2023-04-24T07:10:22;9.50;99.90
52267;DHT22;38223;50.940;4.034;2023-04-24T07:12:56;9.40;99.90
52267;DHT22;38223;50.940;4.034;2023-04-24T07:15:28;9.30;99.90
52267;DHT22;38223;50.940;4.034;2023-04-24T07:17:57;9.30;99.90
52267;DHT22;38223;50.940;4.034;2023-04-24T07:20:27;9.30;99.90
52267;DHT22;38223;50.940;4.034;2023-04-24T07:22:55;9.40;99.90
52267;DHT22;38223;50.940;4.034;2023-04-24T07:25:26;9.40;99.90
52267;DHT22;38223;50.940;4.034;2023-04-24T07:27:58;9.50;99.90
52267;DHT22;38223;50.940;4.034;2023-04-24T07:30:27;9.50;99.90
52267;DHT22;38223;50.940;4.034;2023-04-24T07:33:05;9.60;99.90
52267;DHT22;38223;50.940;4.034;2023-04-24T07:35:40;9.60;99.90
52267;DHT22;38223;50.940;4.034;2023-04-24T07:38:14;9.80;99.90
52267;DHT22;38223;50.940;4.034;2023-04-24T07:40:47;9.80;99.90
52267;DHT22;38223;50.940;4.034;2023-04-24T07:43:16;9.90;99.90
52267;DHT22;38223;50.940;4.034;2023-04-24T07:45:50;9.80;99.90
52267;DHT22;38223;50.940;4.034;2023-04-24T07:48:19;9.80;99.90
52267;DHT22;38223;50.940;4.034;2023-04-24T07:50:49;9.60;99.90
52267;DHT22;38223;50.940;4.034;2023-04-24T07:53:25;9.60;99.90
52267;DHT22;38223;50.940;4.034;2023-04-24T07:55:56;9.60;99.90
52267;DHT22;38223;50.940;4.034;2023-04-24T07:58:25;9.60;99.90
52267;DHT22;38223;50.940;4.034;2023-04-24T08:00:54;9.70;99.90
52267;DHT22;38223;50.940;4.034;2023-04-24T08:03:22;9.70;99.90
52267;DHT22;38223;50.940;4.034;2023-04-24T08:05:53;9.80;99.90
52267;DHT22;38223;50.940;4.034;2023-04-24T08:08:23;9.80;99.90
52267;DHT22;38223;50.940;4.034;2023-04-24T08:10:56;9.80;99.90
52267;DHT22;38223;50.940;4.034;2023-04-24T08:13:30;9.90;99.90
52267;DHT22;38223;50.940;4.034;2023-04-24T08:16:05;9.90;99.90
52267;DHT22;38223;50.940;4.034;2023-04-24T08:18:38;10.00;99.90
52267;DHT22;38223;50.940;4.034;2023-04-24T08:21:12;9.90;99.90
52267;DHT22;38223;50.940;4.034;2023-04-24T08:23:43;10.00;99.90
52267;DHT22;38223;50.940;4.034;2023-04-24T08:26:35;10.00;99.90
52267;DHT22;38223;50.940;4.034;2023-04-24T08:29:06;10.20;99.90
52267;DHT22;38223;50.940;4.034;2023-04-24T08:31:39;10.20;99.90
52267;DHT22;38223;50.940;4.034;2023-04-24T08:34:10;10.30;99.90
52267;DHT22;38223;50.940;4.034;2023-04-24T08:36:42;10.40;99.90
52267;DHT22;38223;50.940;4.034;2023-04-24T08:39:14;10.50;99.90
52267;DHT22;38223;50.940;4.034;2023-04-24T08:41:49;10.60;99.90
52267;DHT22;38223;50.940;4.034;2023-04-24T08:44:21;10.60;99.90
52267;DHT22;38223;50.940;4.034;2023-04-24T08:46:57;10.80;99.90
52267;DHT22;38223;50.940;4.034;2023-04-24T08:49:28;10.90;99.90
52267;DHT22;38223;50.940;4.034;2023-04-24T08:52:02;10.80;99.90
52267;DHT22;38223;50.940;4.034;2023-04-24T08:57:20;10.70;99.90
52267;DHT22;38223;50.940;4.034;2023-04-24T08:59:52;10.90;99.90
52267;DHT22;38223;50.940;4.034;2023-04-24T09:02:26;11.00;99.90
52267;DHT22;38223;50.940;4.034;2023-04-24T09:05:04;10.90;99.90
52267;DHT22;38223;50.940;4.034;2023-04-24T09:07:36;10.80;99.90
52267;DHT22;38223;50.940;4.034;2023-04-24T09:10:05;10.60;99.90
52267;DHT22;38223;50.940;4.034;2023-04-24T09:12:38;10.50;99.90
52267;DHT22;38223;50.940;4.034;2023-04-24T09:15:10;10.60;99.90
52267;DHT22;38223;50.940;4.034;2023-04-24T09:17:44;10.80;99.90
52267;DHT22;38223;50.940;4.034;2023-04-24T09:20:15;10.90;99.90
52267;DHT22;38223;50.940;4.034;2023-04-24T09:22:48;11.10;99.90
52267;DHT22;38223;50.940;4.034;2023-04-24T09:25:24;11.10;99.90
52267;DHT22;38223;50.940;4.034;2023-04-24T09:27:55;11.20;99.90
52267;DHT22;38223;50.940;4.034;2023-04-24T09:30:25;11.30;99.90
52267;DHT22;38223;50.940;4.034;2023-04-24T09:33:15;11.30;99.90
52267;DHT22;38223;50.940;4.034;2023-04-24T09:35:49;11.50;99.90
52267;DHT22;38223;50.940;4.034;2023-04-24T09:38:34;11.40;99.90
52267;DHT22;38223;50.940;4.034;2023-04-24T09:41:06;11.20;99.90
52267;DHT22;38223;50.940;4.034;2023-04-24T09:43:37;11.20;99.90
52267;DHT22;38223;50.940;4.034;2023-04-24T09:46:10;11.10;99.90
52267;DHT22;38223;50.940;4.034;2023-04-24T09:48:41;11.20;99.90
52267;DHT22;38223;50.940;4.034;2023-04-24T09:51:15;11.20;99.90
52267;DHT22;38223;50.940;4.034;2023-04-24T09:53:52;11.30;99.90
52267;DHT22;38223;50.940;4.034;2023-04-24T09:56:21;11.50;99.90
52267;DHT22;38223;50.940;4.034;2023-04-24T09:58:51;11.50;99.90
52267;DHT22;38223;50.940;4.034;2023-04-24T10:01:32;11.50;99.90
52267;DHT22;38223;50.940;4.034;2023-04-24T10:04:03;11.60;99.90
52267;DHT22;38223;50.940;4.034;2023-04-24T10:06:37;11.80;99.90
52267;DHT22;38223;50.940;4.034;2023-04-24T10:09:08;11.90;99.90
52267;DHT22;38223;50.940;4.034;2023-04-24T10:11:42;11.80;99.90
52267;DHT22;38223;50.940;4.034;2023-04-24T10:14:17;11.60;99.90
52267;DHT22;38223;50.940;4.034;2023-04-24T10:16:51;11.50;99.90
52267;DHT22;38223;50.940;4.034;2023-04-24T10:19:21;11.50;99.90
52267;DHT22;38223;50.940;4.034;2023-04-24T10:21:52;11.50;99.90
52267;DHT22;38223;50.940;4.034;2023-04-24T10:24:20;11.50;99.90
52267;DHT22;38223;50.940;4.034;2023-04-24T10:26:50;11.70;99.90
52267;DHT22;38223;50.940;4.034;2023-04-24T10:29:19;11.70;99.90
52267;DHT22;38223;50.940;4.034;2023-04-24T10:31:53;11.80;99.90
52267;DHT22;38223;50.940;4.034;2023-04-24T10:34:28;11.90;99.90
52267;DHT22;38223;50.940;4.034;2023-04-24T10:37:00;11.60;99.90
52267;DHT22;38223;50.940;4.034;2023-04-24T10:39:30;11.70;99.90
52267;DHT22;38223;50.940;4.034;2023-04-24T10:42:13;11.60;99.90
52267;DHT22;38223;50.940;4.034;2023-04-24T10:44:40;11.60;99.90
52267;DHT22;38223;50.940;4.034;2023-04-24T10:47:15;11.70;99.90
52267;DHT22;38223;50.940;4.034;2023-04-24T10:49:49;11.60;99.90
52267;DHT22;38223;50.940;4.034;2023-04-24T10:52:17;11.70;99.90
52267;DHT22;38223;50.940;4.034;2023-04-24T10:54:49;11.70;99.90
52267;DHT22;38223;50.940;4.034;2023-04-24T10:57:30;11.80;99.90
52267;DHT22;38223;50.940;4.034;2023-04-24T11:00:16;11.80;99.90
52267;DHT22;38223;50.940;4.034;2023-04-24T11:02:47;11.70;99.90
52267;DHT22;38223;50.940;4.034;2023-04-24T11:05:22;11.70;99.90
52267;DHT22;38223;50.940;4.034;2023-04-24T11:08:12;11.60;99.90
52267;DHT22;38223;50.940;4.034;2023-04-24T11:10:54;11.60;99.90
52267;DHT22;38223;50.940;4.034;2023-04-24T11:13:23;11.40;99.90
52267;DHT22;38223;50.940;4.034;2023-04-24T11:19:08;11.50;99.90
52267;DHT22;38223;50.940;4.034;2023-04-24T11:21:54;11.50;99.90
52267;DHT22;38223;50.940;4.034;2023-04-24T11:24:48;11.60;99.90
52267;DHT22;38223;50.940;4.034;2023-04-24T11:27:17;11.70;99.90
52267;DHT22;38223;50.940;4.034;2023-04-24T11:30:01;11.90;99.90
52267;DHT22;38223;50.940;4.034;2023-04-24T11:32:42;11.90;99.90
52267;DHT22;38223;50.940;4.034;2023-04-24T11:35:20;11.90;99.90
52267;DHT22;38223;50.940;4.034;2023-04-24T11:37:55;11.80;99.90
52267;DHT22;38223;50.940;4.034;2023-04-24T11:40:26;11.80;99.90
52267;DHT22;38223;50.940;4.034;2023-04-24T11:42:55;11.80;99.90
52267;DHT22;38223;50.940;4.034;2023-04-24T11:45:29;11.80;99.90
52267;DHT22;38223;50.940;4.034;2023-04-24T11:50:47;11.70;99.90
52267;DHT22;38223;50.940;4.034;2023-04-24T11:53:22;11.70;99.90
52267;DHT22;38223;50.940;4.034;2023-04-24T11:55:54;11.80;99.90
52267;DHT22;38223;50.940;4.034;2023-04-24T11:58:23;12.00;99.90
52267;DHT22;38223;50.940;4.034;2023-04-24T12:00:56;12.10;99.90
52267;DHT22;38223;50.940;4.034;2023-04-24T12:03:29;12.00;99.90
52267;DHT22;38223;50.940;4.034;2023-04-24T12:06:10;12.00;99.90
52267;DHT22;38223;50.940;4.034;2023-04-24T12:08:45;12.10;99.90
52267;DHT22;38223;50.940;4.034;2023-04-24T12:11:15;12.00;99.90
52267;DHT22;38223;50.940;4.034;2023-04-24T12:13:47;12.10;99.90
52267;DHT22;38223;50.940;4.034;2023-04-24T12:16:19;12.30;99.90
52267;DHT22;38223;50.940;4.034;2023-04-24T12:18:52;12.20;99.90
52267;DHT22;38223;50.940;4.034;2023-04-24T12:21:24;12.20;99.90
52267;DHT22;38223;50.940;4.034;2023-04-24T12:23:58;12.30;99.90
52267;DHT22;38223;50.940;4.034;2023-04-24T12:26:29;12.50;99.90
52267;DHT22;38223;50.940;4.034;2023-04-24T12:29:05;12.60;99.90
52267;DHT22;38223;50.940;4.034;2023-04-24T12:31:38;12.60;99.90
52267;DHT22;38223;50.940;4.034;2023-04-24T12:34:22;12.40;99.90
52267;DHT22;38223;50.940;4.034;2023-04-24T12:36:56;12.40;99.90
52267;DHT22;38223;50.940;4.034;2023-04-24T12:39:34;12.50;99.90
52267;DHT22;38223;50.940;4.034;2023-04-24T12:42:11;12.80;99.90
52267;DHT22;38223;50.940;4.034;2023-04-24T12:44:46;13.00;99.90
52267;DHT22;38223;50.940;4.034;2023-04-24T12:47:15;13.10;99.90
52267;DHT22;38223;50.940;4.034;2023-04-24T12:49:45;13.10;99.90
52267;DHT22;38223;50.940;4.034;2023-04-24T12:52:26;13.00;99.90
52267;DHT22;38223;50.940;4.034;2023-04-24T12:54:59;13.00;99.90
52267;DHT22;38223;50.940;4.034;2023-04-24T12:57:34;13.00;99.90
52267;DHT22;38223;50.940;4.034;2023-04-24T13:00:04;12.90;99.90
52267;DHT22;38223;50.940;4.034;2023-04-24T13:02:39;13.00;99.90
52267;DHT22;38223;50.940;4.034;2023-04-24T13:05:09;13.20;99.90
52267;DHT22;38223;50.940;4.034;2023-04-24T13:07:40;13.30;99.90
52267;DHT22;38223;50.940;4.034;2023-04-24T13:10:09;13.30;99.90
52267;DHT22;38223;50.940;4.034;2023-04-24T13:12:40;13.50;99.90
52267;DHT22;38223;50.940;4.034;2023-04-24T13:15:15;13.50;99.90
52267;DHT22;38223;50.940;4.034;2023-04-24T13:17:45;13.80;99.90
52267;DHT22;38223;50.940;4.034;2023-04-24T13:20:17;14.00;99.90
52267;DHT22;38223;50.940;4.034;2023-04-24T13:23:05;13.70;99.90
52267;DHT22;38223;50.940;4.034;2023-04-24T13:25:37;13.60;99.90
52267;DHT22;38223;50.940;4.034;2023-04-24T13:28:09;13.80;99.90
52267;DHT22;38223;50.940;4.034;2023-04-24T13:30:40;13.80;99.90
52267;DHT22;38223;50.940;4.034;2023-04-24T13:33:11;13.80;99.90
52267;DHT22;38223;50.940;4.034;2023-04-24T13:35:39;13.80;99.90
52267;DHT22;38223;50.940;4.034;2023-04-24T13:38:06;14.10;99.90
52267;DHT22;38223;50.940;4.034;2023-04-24T13:40:45;14.20;99.90
52267;DHT22;38223;50.940;4.034;2023-04-24T13:43:14;13.80;99.90
52267;DHT22;38223;50.940;4.034;2023-04-24T13:45:42;13.60;99.90
52267;DHT22;38223;50.940;4.034;2023-04-24T13:48:18;13.40;99.90
52267;DHT22;38223;50.940;4.034;2023-04-24T13:50:48;13.30;99.90
52267;DHT22;38223;50.940;4.034;2023-04-24T13:53:17;13.40;99.90
52267;DHT22;38223;50.940;4.034;2023-04-24T13:55:47;13.50;99.90
52267;DHT22;38223;50.940;4.034;2023-04-24T13:58:16;13.50;99.90
52267;DHT22;38223;50.940;4.034;2023-04-24T14:00:47;13.50;99.90
52267;DHT22;38223;50.940;4.034;2023-04-24T14:03:21;13.30;99.90
52267;DHT22;38223;50.940;4.034;2023-04-24T14:05:51;13.20;99.90
52267;DHT22;38223;50.940;4.034;2023-04-24T14:08:25;13.20;99.90
52267;DHT22;38223;50.940;4.034;2023-04-24T14:10:55;13.20;99.90
52267;DHT22;38223;50.940;4.034;2023-04-24T14:13:26;13.40;99.90
52267;DHT22;38223;50.940;4.034;2023-04-24T14:15:57;13.40;99.90
52267;DHT22;38223;50.940;4.034;2023-04-24T14:18:27;13.30;99.90
52267;DHT22;38223;50.940;4.034;2023-04-24T14:20:57;13.40;99.90
52267;DHT22;38223;50.940;4.034;2023-04-24T14:23:31;13.30;99.90
52267;DHT22;38223;50.940;4.034;2023-04-24T14:26:00;13.30;99.90
52267;DHT22;38223;50.940;4.034;2023-04-24T14:28:30;13.50;99.90
52267;DHT22;38223;50.940;4.034;2023-04-24T14:31:29;13.40;99.90
52267;DHT22;38223;50.940;4.034;2023-04-24T14:34:01;13.40;99.90
52267;DHT22;38223;50.940;4.034;2023-04-24T14:36:29;13.60;99.90
52267;DHT22;38223;50.940;4.034;2023-04-24T14:39:00;13.70;99.90
52267;DHT22;38223;50.940;4.034;2023-04-24T14:41:31;13.70;99.90
52267;DHT22;38223;50.940;4.034;2023-04-24T14:44:02;13.70;99.90
52267;DHT22;38223;50.940;4.034;2023-04-24T14:46:32;13.50;99.90
52267;DHT22;38223;50.940;4.034;2023-04-24T14:49:02;13.10;99.90
52267;DHT22;38223;50.940;4.034;2023-04-24T14:51:34;13.30;99.90
52267;DHT22;38223;50.940;4.034;2023-04-24T14:54:04;13.10;99.90
52267;DHT22;38223;50.940;4.034;2023-04-24T14:56:38;13.10;99.90
52267;DHT22;38223;50.940;4.034;2023-04-24T14:59:08;13.10;99.90
52267;DHT22;38223;50.940;4.034;2023-04-24T15:01:40;13.10;99.90
52267;DHT22;38223;50.940;4.034;2023-04-24T15:04:15;13.20;99.90
52267;DHT22;38223;50.940;4.034;2023-04-24T15:06:45;13.10;99.90
52267;DHT22;38223;50.940;4.034;2023-04-24T15:09:15;13.30;99.90
52267;DHT22;38223;50.940;4.034;2023-04-24T15:11:45;13.40;99.90
52267;DHT22;38223;50.940;4.034;2023-04-24T15:14:16;13.50;99.90
52267;DHT22;38223;50.940;4.034;2023-04-24T15:16:47;13.60;99.90
52267;DHT22;38223;50.940;4.034;2023-04-24T15:19:17;13.40;99.90
52267;DHT22;38223;50.940;4.034;2023-04-24T15:21:54;13.60;99.90
52267;DHT22;38223;50.940;4.034;2023-04-24T15:24:26;13.60;99.90
52267;DHT22;38223;50.940;4.034;2023-04-24T15:26:58;13.70;99.90
52267;DHT22;38223;50.940;4.034;2023-04-24T15:29:32;13.50;99.90
52267;DHT22;38223;50.940;4.034;2023-04-24T15:31:59;13.70;99.90
52267;DHT22;38223;50.940;4.034;2023-04-24T15:34:29;13.40;99.90
52267;DHT22;38223;50.940;4.034;2023-04-24T15:36:59;13.20;99.90
52267;DHT22;38223;50.940;4.034;2023-04-24T15:39:29;13.20;99.90
52267;DHT22;38223;50.940;4.034;2023-04-24T15:41:59;13.10;99.90
52267;DHT22;38223;50.940;4.034;2023-04-24T15:44:27;13.10;99.90
52267;DHT22;38223;50.940;4.034;2023-04-24T15:46:56;13.10;99.90
52267;DHT22;38223;50.940;4.034;2023-04-24T15:49:34;13.20;99.90
52267;DHT22;38223;50.940;4.034;2023-04-24T15:52:02;13.10;99.90
52267;DHT22;38223;50.940;4.034;2023-04-24T15:54:36;13.10;99.90
52267;DHT22;38223;50.940;4.034;2023-04-24T15:57:06;13.20;99.90
52267;DHT22;38223;50.940;4.034;2023-04-24T15:59:36;13.10;99.90
52267;DHT22;38223;50.940;4.034;2023-04-24T16:02:08;13.20;99.90
52267;DHT22;38223;50.940;4.034;2023-04-24T16:04:39;13.10;99.90
52267;DHT22;38223;50.940;4.034;2023-04-24T16:07:07;13.10;99.90
52267;DHT22;38223;50.940;4.034;2023-04-24T16:09:40;13.10;99.90
52267;DHT22;38223;50.940;4.034;2023-04-24T16:12:14;13.00;99.90
52267;DHT22;38223;50.940;4.034;2023-04-24T16:14:42;12.90;99.90
52267;DHT22;38223;50.940;4.034;2023-04-24T16:17:12;13.00;99.90
52267;DHT22;38223;50.940;4.034;2023-04-24T16:19:43;13.10;99.90
52267;DHT22;38223;50.940;4.034;2023-04-24T16:22:13;13.10;99.90